Time;durP1;ratioP1;P1;durP2;ratioP2;P2;SDS_P1;SDS_P2;PMS_P1;PMS_P2;Temp;Humidity;BMP_temperature;BMP_pressure;BME280_temperature;BME280_humidity;BME280_pressure;Samples;Min_cycle;Max_cycle;Signal;HPM_P1;HPM_P2
2021/01/04 00:00:59;;;;;;;8.43;5.53;;;;;;;;;;5049153;28;20025;-67
2021/01/04 00:03:24;;;;;;;;;;;;;;;;;;5050709;28;20036;-68
2021/01/04 00:06:02;;;;;;;7.28;4.80;;;;;;;;;;5049444;28;19912;-68
2021/01/04 00:08:27;;;;;;;9.35;4.60;;;;;;;;;;5029961;28;20026;-67
2021/01/04 00:10:55;;;;;;;8.27;5.05;;;;;;;;;;5047915;28;20013;-68
2021/01/04 00:13:30;;;;;;;9.63;5.90;;;;;;;;;;5049451;28;20082;-68
2021/01/04 00:16:13;;;;;;;8.48;5.13;;;;;;;;;;5049140;28;20031;-68
2021/01/04 00:18:57;;;;;;;9.25;5.80;;;;;;;;;;5040166;28;20017;-68
2021/01/04 00:21:30;;;;;;;9.80;5.75;;;;;;;;;;5049362;28;20074;-68
2021/01/04 00:24:03;;;;;;;8.80;5.30;;;;;;;;;;5048588;28;20507;-68
2021/01/04 00:26:34;;;;;;;10.20;5.85;;;;;;;;;;5048782;28;20036;-67
2021/01/04 00:28:59;;;;;;;7.75;5.15;;;;;;;;;;5048216;28;20020;-68
2021/01/04 00:31:26;;;;;;;10.45;5.00;;;;;;;;;;5049203;28;20435;-67
2021/01/04 00:33:54;;;;;;;9.50;5.43;;;;;;;;;;5048788;28;20079;-68
2021/01/04 00:36:22;;;;;;;9.25;5.53;;;;;;;;;;5048986;28;20025;-68
2021/01/04 00:38:50;;;;;;;7.65;4.95;;;;;;;;;;5048862;28;20465;-68
2021/01/04 00:41:23;;;;;;;9.68;5.45;;;;;;;;;;5049409;28;20083;-68
2021/01/04 00:43:49;;;;;;;7.45;4.70;;;;;;;;;;5048147;28;20043;-68
2021/01/04 00:46:18;;;;;;;8.43;5.10;;;;;;;;;;5048440;28;20024;-68
2021/01/04 00:48:43;;;;;;;8.73;5.05;;;;;;;;;;5048654;28;20025;-68
2021/01/04 00:51:20;;;;;;;10.27;5.45;;;;;;;;;;5045855;28;20013;-68
2021/01/04 00:53:49;;;;;;;11.95;5.50;;;;;;;;;;5047245;28;20294;-68
2021/01/04 00:56:23;;;;;;;9.25;5.38;;;;;;;;;;5048474;28;20021;-68
2021/01/04 00:59:11;;;;;;;11.05;4.65;;;;;;;;;;5048350;28;20017;-68
2021/01/04 01:01:55;;;;;;;8.60;5.30;;;;;;;;;;5051967;28;20398;-67
2021/01/04 01:04:30;;;;;;;8.38;5.30;;;;;;;;;;5051123;28;20060;-67
2021/01/04 01:07:13;;;;;;;13.70;5.97;;;;;;;;;;5052457;28;20085;-67
2021/01/04 01:09:40;;;;;;;8.85;5.18;;;;;;;;;;5048391;28;20025;-67
2021/01/04 01:12:24;;;;;;;9.70;5.50;;;;;;;;;;5051432;28;20087;-67
2021/01/04 01:15:08;;;;;;;9.82;5.80;;;;;;;;;;5048997;28;20009;-67
2021/01/04 01:18:03;;;;;;;10.82;6.43;;;;;;;;;;5052049;28;20075;-68
2021/01/04 01:20:28;;;;;;;10.00;6.00;;;;;;;;;;5052105;28;20110;-67
2021/01/04 01:22:54;;;;;;;7.60;5.32;;;;;;;;;;5052138;28;20481;-67
2021/01/04 01:25:20;;;;;;;16.17;5.95;;;;;;;;;;5052472;28;20032;-67
2021/01/04 01:28:04;;;;;;;10.07;5.75;;;;;;;;;;5051184;28;20144;-67
2021/01/04 01:30:29;;;;;;;11.05;6.15;;;;;;;;;;5052315;28;20025;-67
2021/01/04 01:33:13;;;;;;;8.48;5.63;;;;;;;;;;5052380;28;20028;-67
2021/01/04 01:35:41;;;;;;;9.10;5.68;;;;;;;;;;5050866;28;20546;-68
2021/01/04 01:38:09;;;;;;;8.23;5.35;;;;;;;;;;5052243;28;20143;-67
2021/01/04 01:40:53;;;;;;;10.73;5.80;;;;;;;;;;5052334;28;20025;-67
2021/01/04 01:43:21;;;;;;;9.98;6.20;;;;;;;;;;5051802;28;20124;-67
2021/01/04 01:45:58;;;;;;;9.93;5.82;;;;;;;;;;5051309;28;20489;-67
2021/01/04 01:48:42;;;;;;;9.45;5.60;;;;;;;;;;5050810;28;20078;-68
2021/01/04 01:51:10;;;;;;;8.93;5.97;;;;;;;;;;5051196;28;20029;-67
2021/01/04 01:53:35;;;;;;;10.77;6.18;;;;;;;;;;5051991;28;20100;-67
2021/01/04 01:56:14;;;;;;;9.80;6.13;;;;;;;;;;5051343;28;20103;-67
2021/01/04 01:58:48;;;;;;;8.80;5.78;;;;;;;;;;5051808;28;20268;-67
2021/01/04 02:01:34;;;;;;;8.57;5.53;;;;;;;;;;5049157;28;20029;-67
2021/01/04 02:04:18;;;;;;;18.13;6.53;;;;;;;;;;5049938;28;20104;-67
2021/01/04 02:06:43;;;;;;;10.80;6.25;;;;;;;;;;5051631;28;20056;-68
2021/01/04 02:09:17;;;;;;;10.00;5.93;;;;;;;;;;5051818;28;20040;-68
2021/01/04 02:11:46;;;;;;;8.05;5.97;;;;;;;;;;5050909;28;20017;-68
2021/01/04 02:14:20;;;;;;;10.70;5.95;;;;;;;;;;5051510;28;20429;-68
2021/01/04 02:17:04;;;;;;;9.95;6.15;;;;;;;;;;5050103;28;20020;-68
2021/01/04 02:19:42;;;;;;;8.52;5.43;;;;;;;;;;5050973;28;20029;-67
2021/01/04 02:22:25;;;;;;;10.82;6.50;;;;;;;;;;5051688;28;20021;-68
2021/01/04 02:24:50;;;;;;;10.18;6.32;;;;;;;;;;5051742;28;20016;-67
2021/01/04 02:27:20;;;;;;;11.07;6.28;;;;;;;;;;5050356;28;20017;-67
2021/01/04 02:29:46;;;;;;;9.98;6.55;;;;;;;;;;5049038;28;20069;-67
2021/01/04 02:32:11;;;;;;;9.73;6.28;;;;;;;;;;5050589;28;20088;-67
2021/01/04 02:34:38;;;;;;;9.88;6.20;;;;;;;;;;5051413;28;20358;-68
2021/01/04 02:37:03;;;;;;;11.70;6.40;;;;;;;;;;5051054;28;20059;-67
2021/01/04 02:39:47;;;;;;;11.20;7.07;;;;;;;;;;5051280;28;20037;-67
2021/01/04 02:42:15;;;;;;;11.05;7.05;;;;;;;;;;5050380;28;20579;-67
2021/01/04 02:44:41;;;;;;;10.70;6.43;;;;;;;;;;5050659;28;20333;-67
2021/01/04 02:47:25;;;;;;;13.27;7.63;;;;;;;;;;5048883;28;20032;-67
2021/01/04 02:49:56;;;;;;;11.77;6.50;;;;;;;;;;5050467;28;20030;-67
2021/01/04 02:52:28;;;;;;;12.27;6.90;;;;;;;;;;5050996;28;20028;-67
2021/01/04 02:54:58;;;;;;;10.15;6.38;;;;;;;;;;5051288;28;20063;-67
2021/01/04 02:57:26;;;;;;;11.83;6.63;;;;;;;;;;5050179;28;20020;-67
2021/01/04 02:59:52;;;;;;;11.30;7.00;;;;;;;;;;5049661;28;20050;-67
2021/01/04 03:02:21;;;;;;;12.10;7.00;;;;;;;;;;5049670;28;20064;-67
2021/01/04 03:04:47;;;;;;;15.53;7.67;;;;;;;;;;5050741;28;20021;-67
2021/01/04 03:07:12;;;;;;;11.38;7.10;;;;;;;;;;5050093;28;20032;-67
2021/01/04 03:09:41;;;;;;;11.38;7.20;;;;;;;;;;5050554;28;20021;-67
2021/01/04 03:12:11;;;;;;;14.55;8.52;;;;;;;;;;5050193;28;20121;-67
2021/01/04 03:14:55;;;;;;;11.70;6.53;;;;;;;;;;5050571;28;20481;-67
2021/01/04 03:17:24;;;;;;;14.45;6.97;;;;;;;;;;5049744;28;20055;-67
2021/01/04 03:19:53;;;;;;;10.98;7.57;;;;;;;;;;5050316;28;20033;-67
2021/01/04 03:22:18;;;;;;;11.65;6.85;;;;;;;;;;5049832;28;20377;-67
2021/01/04 03:24:47;;;;;;;12.40;7.60;;;;;;;;;;5048948;28;20024;-67
2021/01/04 03:27:14;;;;;;;12.02;7.28;;;;;;;;;;5046915;28;20049;-67
2021/01/04 03:29:39;;;;;;;13.23;8.23;;;;;;;;;;5049712;28;20100;-67
2021/01/04 03:32:05;;;;;;;11.85;7.28;;;;;;;;;;5050282;28;20167;-67
2021/01/04 03:34:30;;;;;;;10.90;7.00;;;;;;;;;;5049575;28;20643;-67
2021/01/04 03:36:55;;;;;;;12.35;7.63;;;;;;;;;;5050075;28;20082;-67
2021/01/04 03:39:20;;;;;;;12.02;7.43;;;;;;;;;;5049673;28;20033;-67
2021/01/04 03:41:46;;;;;;;12.05;7.60;;;;;;;;;;5050099;28;20029;-67
2021/01/04 03:44:12;;;;;;;11.05;7.07;;;;;;;;;;5049738;28;20029;-67
2021/01/04 03:46:42;;;;;;;11.60;7.80;;;;;;;;;;5049944;28;20369;-67
2021/01/04 03:49:08;;;;;;;13.02;7.65;;;;;;;;;;5048955;28;20482;-67
2021/01/04 03:51:33;;;;;;;12.87;8.30;;;;;;;;;;5049760;28;20045;-67
2021/01/04 03:53:58;;;;;;;16.17;9.60;;;;;;;;;;5049485;28;20337;-67
2021/01/04 03:56:23;;;;;;;14.83;8.57;;;;;;;;;;5049326;28;20252;-67
2021/01/04 03:58:48;;;;;;;14.30;9.17;;;;;;;;;;5048990;28;20817;-67
2021/01/04 04:01:13;;;;;;;19.95;7.88;;;;;;;;;;5049233;28;20259;-67
2021/01/04 04:03:39;;;;;;;17.48;9.30;;;;;;;;;;5049058;28;20454;-67
2021/01/04 04:06:04;;;;;;;14.82;7.75;;;;;;;;;;5049324;28;20032;-67
2021/01/04 04:08:29;;;;;;;17.40;8.15;;;;;;;;;;5048835;28;20385;-67
2021/01/04 04:10:55;;;;;;;15.25;7.80;;;;;;;;;;5048803;28;20025;-67
2021/01/04 04:13:20;;;;;;;14.90;8.30;;;;;;;;;;5048147;28;20024;-67
2021/01/04 04:15:45;;;;;;;14.20;8.35;;;;;;;;;;5049076;28;20024;-67
2021/01/04 04:18:10;;;;;;;12.75;7.47;;;;;;;;;;5049363;28;20025;-67
2021/01/04 04:20:36;;;;;;;13.15;7.60;;;;;;;;;;5049426;28;20366;-67
2021/01/04 04:23:01;;;;;;;14.10;8.45;;;;;;;;;;5051075;28;20068;-67
2021/01/04 04:25:26;;;;;;;12.10;8.13;;;;;;;;;;5049276;28;20041;-67
2021/01/04 04:27:52;;;;;;;13.95;8.23;;;;;;;;;;5049217;28;20150;-67
2021/01/04 04:30:21;;;;;;;13.13;8.05;;;;;;;;;;5048410;28;20024;-67
2021/01/04 04:32:47;;;;;;;12.77;8.02;;;;;;;;;;5047595;28;20032;-67
2021/01/04 04:35:12;;;;;;;12.45;7.68;;;;;;;;;;5048400;28;20020;-67
2021/01/04 04:37:39;;;;;;;11.57;7.63;;;;;;;;;;5048780;28;20047;-67
2021/01/04 04:40:05;;;;;;;12.40;8.15;;;;;;;;;;5049488;28;20052;-67
2021/01/04 04:42:30;;;;;;;15.07;7.95;;;;;;;;;;5048877;28;20017;-68
2021/01/04 04:45:06;;;;;;;12.65;7.72;;;;;;;;;;5048960;28;20063;-67
2021/01/04 04:47:42;;;;;;;13.48;7.68;;;;;;;;;;5048707;28;20025;-67
2021/01/04 04:50:09;;;;;;;12.90;8.25;;;;;;;;;;5049301;28;20060;-67
2021/01/04 04:52:41;;;;;;;14.00;9.15;;;;;;;;;;5044753;28;20014;-68
2021/01/04 04:55:13;;;;;;;14.45;7.93;;;;;;;;;;5049197;28;20075;-67
2021/01/04 04:57:51;;;;;;;11.77;7.47;;;;;;;;;;5048669;28;20048;-67
2021/01/04 05:00:18;;;;;;;15.70;8.32;;;;;;;;;;5047305;28;20155;-67
2021/01/04 05:02:55;;;;;;;13.77;8.55;;;;;;;;;;5048694;28;20025;-67
2021/01/04 05:05:22;;;;;;;14.07;8.40;;;;;;;;;;5048926;28;20036;-67
2021/01/04 05:08:05;;;;;;;16.17;8.27;;;;;;;;;;5047530;28;20406;-67
2021/01/04 05:10:34;;;;;;;14.43;8.05;;;;;;;;;;5048605;28;20021;-67
2021/01/04 05:13:01;;;;;;;14.30;7.95;;;;;;;;;;5048878;28;20485;-67
2021/01/04 05:15:33;;;;;;;14.90;8.00;;;;;;;;;;5047804;28;20025;-67
2021/01/04 05:17:58;;;;;;;14.57;7.82;;;;;;;;;;5048773;28;20096;-67
2021/01/04 05:20:30;;;;;;;14.20;8.30;;;;;;;;;;5048083;28;20105;-67
2021/01/04 05:23:01;;;;;;;13.35;7.93;;;;;;;;;;5048867;28;20017;-67
2021/01/04 05:25:36;;;;;;;12.55;7.55;;;;;;;;;;5047864;28;20052;-67
2021/01/04 05:28:10;;;;;;;13.13;7.60;;;;;;;;;;5047006;28;20051;-67
2021/01/04 05:30:48;;;;;;;19.25;8.57;;;;;;;;;;5046898;28;20032;-67
2021/01/04 05:33:26;;;;;;;12.15;7.95;;;;;;;;;;5048492;28;20037;-67
2021/01/04 05:35:52;;;;;;;14.68;7.25;;;;;;;;;;5047495;28;20017;-67
2021/01/04 05:38:28;;;;;;;12.38;7.38;;;;;;;;;;5047662;28;20415;-67
2021/01/04 05:40:53;;;;;;;14.07;7.28;;;;;;;;;;5048405;28;20021;-67
2021/01/04 05:43:18;;;;;;;15.00;7.78;;;;;;;;;;5048402;28;20116;-67
2021/01/04 05:45:51;;;;;;;14.02;8.10;;;;;;;;;;5049349;28;20279;-67
2021/01/04 05:48:35;;;;;;;15.77;7.50;;;;;;;;;;5052392;28;20020;-67
2021/01/04 05:51:03;;;;;;;12.65;7.28;;;;;;;;;;5050584;28;20017;-67
2021/01/04 05:53:28;;;;;;;13.73;7.85;;;;;;;;;;5051879;28;20021;-67
2021/01/04 05:55:58;;;;;;;10.75;6.78;;;;;;;;;;5052240;28;20020;-67
2021/01/04 05:58:31;;;;;;;11.73;6.85;;;;;;;;;;5050973;28;20029;-67
2021/01/04 06:01:26;;;;;;;14.10;8.15;;;;;;;;;;5051137;28;20056;-67
2021/01/04 06:03:56;;;;;;;12.60;8.38;;;;;;;;;;5038751;28;20029;-67
2021/01/04 06:06:26;;;;;;;11.57;6.70;;;;;;;;;;5051463;28;20049;-67
2021/01/04 06:08:59;;;;;;;13.23;8.07;;;;;;;;;;5051229;28;20091;-67
2021/01/04 06:11:24;;;;;;;12.48;7.47;;;;;;;;;;5050578;28;20110;-67
2021/01/04 06:13:53;;;;;;;13.32;7.13;;;;;;;;;;5051427;28;20059;-67
2021/01/04 06:16:24;;;;;;;16.58;7.78;;;;;;;;;;5049908;28;20124;-67
2021/01/04 06:18:51;;;;;;;13.65;7.97;;;;;;;;;;5050958;28;20391;-67
2021/01/04 06:21:29;;;;;;;13.52;7.68;;;;;;;;;;5051870;28;20049;-67
2021/01/04 06:23:58;;;;;;;13.35;8.00;;;;;;;;;;5056836;28;20039;-67
2021/01/04 06:26:24;;;;;;;11.50;6.95;;;;;;;;;;5051007;28;20485;-67
2021/01/04 06:28:58;;;;;;;10.75;6.88;;;;;;;;;;5050403;28;20028;-67
2021/01/04 06:31:32;;;;;;;11.68;7.05;;;;;;;;;;5051442;28;20088;-67
2021/01/04 06:33:59;;;;;;;10.57;7.03;;;;;;;;;;5049550;28;20017;-67
2021/01/04 06:36:24;;;;;;;13.13;6.97;;;;;;;;;;5051395;28;20527;-67
2021/01/04 06:38:50;;;;;;;12.50;7.53;;;;;;;;;;5048708;28;20029;-67
2021/01/04 06:41:28;;;;;;;12.85;7.80;;;;;;;;;;5050197;28;20396;-67
2021/01/04 06:43:53;;;;;;;13.30;7.78;;;;;;;;;;5051340;28;20033;-67
2021/01/04 06:46:32;;;;;;;11.52;7.07;;;;;;;;;;5051051;28;20029;-68
2021/01/04 06:49:03;;;;;;;11.63;7.35;;;;;;;;;;5048818;28;20020;-68
2021/01/04 06:51:48;;;;;;;11.85;6.38;;;;;;;;;;5049975;28;20070;-68
2021/01/04 06:54:15;;;;;;;11.45;7.25;;;;;;;;;;5047825;28;20096;-68
2021/01/04 06:56:43;;;;;;;19.02;7.20;;;;;;;;;;5050273;28;20056;-68
2021/01/04 06:59:12;;;;;;;14.30;7.80;;;;;;;;;;5049590;28;20024;-68
2021/01/04 07:01:37;;;;;;;11.73;7.38;;;;;;;;;;5049950;28;20017;-68
2021/01/04 07:04:08;;;;;;;10.95;6.90;;;;;;;;;;5050990;28;20028;-68
2021/01/04 07:06:54;;;;;;;10.90;7.10;;;;;;;;;;5050366;28;20057;-67
2021/01/04 07:09:22;;;;;;;16.45;9.02;;;;;;;;;;5050958;28;20163;-68
2021/01/04 07:11:53;;;;;;;12.77;7.65;;;;;;;;;;5046155;28;20024;-68
2021/01/04 07:14:25;;;;;;;12.57;7.93;;;;;;;;;;5043928;28;20032;-68
2021/01/04 07:16:50;;;;;;;13.25;8.05;;;;;;;;;;5046882;28;20025;-68
2021/01/04 07:19:15;;;;;;;12.57;7.38;;;;;;;;;;5045384;28;20024;-67
2021/01/04 07:21:49;;;;;;;12.32;7.72;;;;;;;;;;5043145;28;20075;-67
2021/01/04 07:24:15;;;;;;;14.93;7.95;;;;;;;;;;5047216;28;20032;-68
2021/01/04 07:26:46;;;;;;;10.88;6.72;;;;;;;;;;5044525;28;20017;-68
2021/01/04 07:29:11;;;;;;;12.52;7.88;;;;;;;;;;5041754;28;20055;-68
2021/01/04 07:31:46;;;;;;;12.10;7.28;;;;;;;;;;5042135;28;20029;-68
2021/01/04 07:34:17;;;;;;;12.82;8.38;;;;;;;;;;5047674;28;20892;-68
2021/01/04 07:37:01;;;;;;;12.82;7.50;;;;;;;;;;5047488;28;20496;-68
2021/01/04 07:39:29;;;;;;;10.23;7.07;;;;;;;;;;5042705;28;20048;-67
2021/01/04 07:41:54;;;;;;;12.80;7.97;;;;;;;;;;5046199;28;20488;-68
2021/01/04 07:44:38;;;;;;;14.20;7.25;;;;;;;;;;5049839;28;20103;-68
2021/01/04 07:47:09;;;;;;;13.05;8.10;;;;;;;;;;5048649;28;20028;-67
2021/01/04 07:49:46;;;;;;;14.25;8.15;;;;;;;;;;5050083;28;20032;-68
2021/01/04 07:52:17;;;;;;;13.50;7.38;;;;;;;;;;5047135;28;20115;-68
2021/01/04 07:54:43;;;;;;;13.80;7.53;;;;;;;;;;5048128;28;20059;-67
2021/01/04 07:57:27;;;;;;;11.55;7.30;;;;;;;;;;5049164;28;20021;-68
2021/01/04 08:00:04;;;;;;;11.20;6.75;;;;;;;;;;5046747;28;20522;-68
2021/01/04 08:02:43;;;;;;;11.52;7.45;;;;;;;;;;5047245;28;20032;-68
2021/01/04 08:05:24;;;;;;;14.75;7.63;;;;;;;;;;5042080;28;20017;-68
2021/01/04 08:07:49;;;;;;;11.88;6.65;;;;;;;;;;5049493;28;20029;-68
2021/01/04 08:10:20;;;;;;;12.50;7.88;;;;;;;;;;5049235;28;20036;-68
2021/01/04 08:13:03;;;;;;;11.00;7.20;;;;;;;;;;5049610;28;20117;-68
2021/01/04 08:15:31;;;;;;;13.68;8.20;;;;;;;;;;5047564;28;20025;-68
2021/01/04 08:17:56;;;;;;;13.23;7.40;;;;;;;;;;5049370;28;20027;-68
2021/01/04 08:20:22;;;;;;;13.43;7.30;;;;;;;;;;5048551;28;20171;-68
2021/01/04 08:22:51;;;;;;;13.55;7.70;;;;;;;;;;5045454;28;20260;-68
2021/01/04 08:25:34;;;;;;;11.98;7.50;;;;;;;;;;5049439;28;20108;-68
2021/01/04 08:28:15;;;;;;;12.90;7.25;;;;;;;;;;5047682;28;20523;-68
2021/01/04 08:30:43;;;;;;;15.90;7.78;;;;;;;;;;5049127;28;20632;-68
2021/01/04 08:33:08;;;;;;;14.95;8.05;;;;;;;;;;5050139;28;20039;-68
2021/01/04 08:35:33;;;;;;;14.23;8.52;;;;;;;;;;5049312;28;20029;-68
2021/01/04 08:38:11;;;;;;;11.30;7.75;;;;;;;;;;5049580;28;20813;-68
2021/01/04 08:40:36;;;;;;;17.67;9.32;;;;;;;;;;5044682;28;20275;-68
2021/01/04 08:43:02;;;;;;;13.38;8.32;;;;;;;;;;5046583;28;20028;-68
2021/01/04 08:45:28;;;;;;;15.60;9.57;;;;;;;;;;5047634;28;20032;-68
2021/01/04 08:47:56;;;;;;;15.35;8.70;;;;;;;;;;5048081;28;20112;-68
2021/01/04 08:50:33;;;;;;;20.08;9.23;;;;;;;;;;5049145;28;20060;-68
2021/01/04 08:53:09;;;;;;;15.18;9.02;;;;;;;;;;5048592;28;20104;-68
2021/01/04 08:55:35;;;;;;;17.10;9.45;;;;;;;;;;5048932;28;20025;-68
2021/01/04 08:58:12;;;;;;;19.23;10.30;;;;;;;;;;5048580;28;20385;-68
2021/01/04 09:00:38;;;;;;;18.08;9.88;;;;;;;;;;5043302;28;20024;-68
2021/01/04 09:03:03;;;;;;;20.50;9.93;;;;;;;;;;5047774;28;20021;-68
2021/01/04 09:05:39;;;;;;;15.65;9.38;;;;;;;;;;5049084;28;20558;-68
2021/01/04 09:08:05;;;;;;;14.90;9.30;;;;;;;;;;5048476;28;20056;-67
2021/01/04 09:10:39;;;;;;;17.08;9.63;;;;;;;;;;5048859;28;20013;-68
2021/01/04 09:13:10;;;;;;;17.23;9.07;;;;;;;;;;5048867;28;20013;-68
2021/01/04 09:15:36;;;;;;;21.88;10.98;;;;;;;;;;5047682;28;20409;-68
2021/01/04 09:18:01;;;;;;;16.88;9.27;;;;;;;;;;5048668;28;20370;-68
2021/01/04 09:20:26;;;;;;;14.77;9.07;;;;;;;;;;5049287;28;20033;-68
2021/01/04 09:23:07;;;;;;;18.83;10.07;;;;;;;;;;5052346;28;20318;-68
2021/01/04 09:25:32;;;;;;;;;;;;;;;;;;5047607;28;20033;-68
2021/01/04 09:27:57;;;;;;;18.73;9.60;;;;;;;;;;5052238;28;19912;-68
2021/01/04 09:30:24;;;;;;;20.15;9.90;;;;;;;;;;5052548;28;20061;-68
2021/01/04 09:32:49;;;;;;;17.40;10.02;;;;;;;;;;5050913;28;20021;-67
2021/01/04 09:35:16;;;;;;;15.98;9.68;;;;;;;;;;5048890;28;20044;-68
2021/01/04 09:37:42;;;;;;;17.13;10.55;;;;;;;;;;5062138;22;20060;-66
2021/01/04 09:40:10;;;;;;;22.13;10.20;;;;;;;;;;5043719;28;20025;-64
2021/01/04 09:42:36;;;;;;;15.70;10.18;;;;;;;;;;5046076;28;20017;-65
2021/01/04 09:45:30;;;;;;;19.60;10.20;;;;;;;;;;5038304;28;20021;-65
2021/01/04 09:48:01;;;;;;;17.02;9.65;;;;;;;;;;5020363;28;20033;-65
2021/01/04 09:50:26;;;;;;;;;;;;;;;;;;5034478;28;20021;-65
2021/01/04 09:53:01;;;;;;;19.17;10.35;;;;;;;;;;5030432;28;19971;-62
2021/01/04 09:55:31;;;;;;;21.08;11.38;;;;;;;;;;5030709;28;20516;-63
2021/01/04 09:57:56;;;;;;;;;;;;;;;;;;5033188;28;20100;-63
2021/01/04 10:00:23;;;;;;;16.88;9.48;;;;;;;;;;5031087;28;20003;-63
2021/01/04 10:02:57;;;;;;;17.17;9.70;;;;;;;;;;5032091;28;20021;-63
2021/01/04 10:05:26;;;;;;;18.95;9.85;;;;;;;;;;5026576;28;20028;-66
2021/01/04 10:07:51;;;;;;;17.05;9.20;;;;;;;;;;5020289;28;20512;-63
2021/01/04 10:10:19;;;;;;;14.10;8.77;;;;;;;;;;5036815;28;20037;-65
2021/01/04 10:12:44;;;;;;;17.30;8.93;;;;;;;;;;5034722;28;20068;-65
2021/01/04 10:15:17;;;;;;;14.10;8.07;;;;;;;;;;5025562;28;20030;-65
2021/01/04 10:17:45;;;;;;;14.05;9.00;;;;;;;;;;5026306;28;20033;-65
2021/01/04 10:20:21;;;;;;;25.23;8.10;;;;;;;;;;5024114;28;20072;-65
2021/01/04 10:22:47;;;;;;;14.95;8.18;;;;;;;;;;5024562;28;20495;-65
2021/01/04 10:25:19;;;;;;;13.77;8.77;;;;;;;;;;5026978;28;20022;-65
2021/01/04 10:27:44;;;;;;;13.18;7.82;;;;;;;;;;5026031;28;20037;-66
2021/01/04 10:30:12;;;;;;;12.90;7.50;;;;;;;;;;5040383;28;20013;-68
2021/01/04 10:32:38;;;;;;;15.32;8.32;;;;;;;;;;5031143;28;20096;-65
2021/01/04 10:35:04;;;;;;;14.40;8.52;;;;;;;;;;5039357;28;20041;-66
2021/01/04 10:37:29;;;;;;;14.65;8.10;;;;;;;;;;5046781;28;20457;-66
2021/01/04 10:39:59;;;;;;;14.52;8.40;;;;;;;;;;5030036;28;20041;-65
2021/01/04 10:42:25;;;;;;;16.55;7.75;;;;;;;;;;5034468;28;21476;-67
2021/01/04 10:44:51;;;;;;;13.35;8.85;;;;;;;;;;5023536;28;20025;-68
2021/01/04 10:47:26;;;;;;;13.35;8.32;;;;;;;;;;5031041;28;20022;-66
2021/01/04 10:49:52;;;;;;;12.43;7.97;;;;;;;;;;5037399;28;20017;-65
2021/01/04 10:52:21;;;;;;;14.07;8.35;;;;;;;;;;5038372;28;20062;-65
2021/01/04 10:54:46;;;;;;;15.25;9.05;;;;;;;;;;5037671;28;20025;-68
2021/01/04 10:57:11;;;;;;;12.77;7.95;;;;;;;;;;5040619;28;20033;-66
2021/01/04 10:59:43;;;;;;;14.48;8.38;;;;;;;;;;5033300;28;20048;-66
2021/01/04 11:02:08;;;;;;;14.57;8.00;;;;;;;;;;5044198;28;20267;-65
2021/01/04 11:04:34;;;;;;;13.68;8.13;;;;;;;;;;5035634;28;20021;-65
2021/01/04 11:07:02;;;;;;;14.93;8.35;;;;;;;;;;5029461;28;20048;-65
2021/01/04 11:09:28;;;;;;;12.45;7.90;;;;;;;;;;5036679;28;20020;-67
2021/01/04 11:12:12;;;;;;;18.52;8.48;;;;;;;;;;5036379;28;20028;-65
2021/01/04 11:14:38;;;;;;;13.88;8.90;;;;;;;;;;5032116;28;20021;-68
2021/01/04 11:17:09;;;;;;;13.88;8.75;;;;;;;;;;5039786;28;20024;-65
2021/01/04 11:19:34;;;;;;;;;;;;;;;;;;5038025;28;20028;-65
2021/01/04 11:22:14;;;;;;;16.70;8.50;;;;;;;;;;5030608;28;19909;-65
2021/01/04 11:24:40;;;;;;;13.07;8.05;;;;;;;;;;5034592;28;20024;-65
2021/01/04 11:27:05;;;;;;;14.93;9.40;;;;;;;;;;5026592;28;20470;-64
2021/01/04 11:29:31;;;;;;;16.70;9.73;;;;;;;;;;5037109;28;20032;-63
2021/01/04 11:31:56;;;;;;;15.95;9.30;;;;;;;;;;5031218;28;20583;-66
2021/01/04 11:34:21;;;;;;;15.07;9.20;;;;;;;;;;5034603;28;20198;-64
2021/01/04 11:36:46;;;;;;;13.82;8.82;;;;;;;;;;5030789;28;20829;-64
2021/01/04 11:39:14;;;;;;;12.90;8.40;;;;;;;;;;5033991;28;20021;-65
2021/01/04 11:41:41;;;;;;;17.10;8.98;;;;;;;;;;5036449;28;20017;-65
2021/01/04 11:44:06;;;;;;;14.18;8.82;;;;;;;;;;5029631;28;20076;-64
2021/01/04 11:46:32;;;;;;;15.02;8.93;;;;;;;;;;5021082;28;20081;-64
2021/01/04 11:48:58;;;;;;;22.15;9.18;;;;;;;;;;5023065;28;20033;-63
2021/01/04 11:51:23;;;;;;;15.35;9.45;;;;;;;;;;5016115;28;20029;-64
2021/01/04 11:53:49;;;;;;;13.50;8.85;;;;;;;;;;5012358;28;20525;-64
2021/01/04 11:56:14;;;;;;;13.02;8.35;;;;;;;;;;5018807;28;20018;-65
2021/01/04 11:58:39;;;;;;;13.55;8.43;;;;;;;;;;5020023;28;20233;-67
2021/01/04 12:01:05;;;;;;;16.00;9.13;;;;;;;;;;5018209;28;20025;-64
2021/01/04 12:03:30;;;;;;;13.00;8.40;;;;;;;;;;5020054;28;20034;-63
2021/01/04 12:05:55;;;;;;;12.63;8.00;;;;;;;;;;5017504;28;20540;-66
2021/01/04 12:08:20;;;;;;;19.15;8.55;;;;;;;;;;5019700;28;20278;-64
2021/01/04 12:10:46;;;;;;;15.60;9.10;;;;;;;;;;5016597;28;20370;-64
2021/01/04 12:13:11;;;;;;;15.23;8.90;;;;;;;;;;5010118;28;20261;-64
2021/01/04 12:15:36;;;;;;;15.45;8.73;;;;;;;;;;5010894;28;20436;-64
2021/01/04 12:18:02;;;;;;;12.93;8.18;;;;;;;;;;5022101;28;20021;-64
2021/01/04 12:20:27;;;;;;;14.45;8.88;;;;;;;;;;5029646;28;20033;-64
2021/01/04 12:22:52;;;;;;;13.77;8.25;;;;;;;;;;5032243;28;20024;-64
2021/01/04 12:25:17;;;;;;;11.75;7.15;;;;;;;;;;5030163;28;20462;-65
2021/01/04 12:27:43;;;;;;;12.20;7.60;;;;;;;;;;5029738;28;20348;-64
2021/01/04 12:30:09;;;;;;;12.50;7.50;;;;;;;;;;5028677;28;20060;-64
2021/01/04 12:32:34;;;;;;;11.27;7.82;;;;;;;;;;5035373;28;20029;-65
2021/01/04 12:35:00;;;;;;;12.00;7.25;;;;;;;;;;5031457;28;20091;-65
2021/01/04 12:37:25;;;;;;;11.82;6.72;;;;;;;;;;5035365;28;20100;-65
2021/01/04 12:39:50;;;;;;;11.02;7.10;;;;;;;;;;5035595;28;20029;-64
2021/01/04 12:42:15;;;;;;;13.82;7.88;;;;;;;;;;5041613;28;20449;-65
2021/01/04 12:44:40;;;;;;;12.55;7.95;;;;;;;;;;5032711;28;20462;-65
2021/01/04 12:47:07;;;;;;;16.90;8.20;;;;;;;;;;5026539;28;20025;-64
2021/01/04 12:49:32;;;;;;;12.40;7.55;;;;;;;;;;5027768;28;20044;-64
2021/01/04 12:51:58;;;;;;;11.73;7.28;;;;;;;;;;5029720;28;20052;-66
2021/01/04 12:54:26;;;;;;;12.07;6.57;;;;;;;;;;5026948;28;20041;-65
2021/01/04 12:56:51;;;;;;;11.27;6.78;;;;;;;;;;5032797;28;20353;-64
2021/01/04 12:59:17;;;;;;;10.27;6.47;;;;;;;;;;5031966;28;20034;-65
2021/01/04 13:01:43;;;;;;;13.05;7.47;;;;;;;;;;5043102;28;21234;-65
2021/01/04 13:04:08;;;;;;;18.92;10.52;;;;;;;;;;5035072;28;20031;-65
2021/01/04 13:06:33;;;;;;;14.23;8.50;;;;;;;;;;5033992;28;20017;-65
2021/01/04 13:08:59;;;;;;;15.35;8.07;;;;;;;;;;5032426;28;20020;-65
2021/01/04 13:11:24;;;;;;;11.70;7.00;;;;;;;;;;5034487;28;20072;-65
2021/01/04 13:13:50;;;;;;;13.82;6.82;;;;;;;;;;5034181;28;20470;-65
2021/01/04 13:16:15;;;;;;;10.87;6.80;;;;;;;;;;5035448;28;20099;-66
2021/01/04 13:18:40;;;;;;;10.05;6.88;;;;;;;;;;5036220;28;20748;-65
2021/01/04 13:21:05;;;;;;;10.75;6.65;;;;;;;;;;5033325;28;20021;-64
2021/01/04 13:23:31;;;;;;;12.67;8.13;;;;;;;;;;5040421;28;20033;-65
2021/01/04 13:25:56;;;;;;;15.68;8.93;;;;;;;;;;5033482;28;20267;-65
2021/01/04 13:28:21;;;;;;;17.98;9.52;;;;;;;;;;5028623;28;20072;-65
2021/01/04 13:30:47;;;;;;;11.40;6.95;;;;;;;;;;5032465;28;20404;-66
2021/01/04 13:33:12;;;;;;;12.43;6.78;;;;;;;;;;5035228;28;20071;-65
2021/01/04 13:35:37;;;;;;;14.30;7.55;;;;;;;;;;5042292;28;20030;-65
2021/01/04 13:38:03;;;;;;;11.17;6.33;;;;;;;;;;5031308;28;20033;-65
2021/01/04 13:40:29;;;;;;;11.45;6.15;;;;;;;;;;5024654;28;20272;-66
2021/01/04 13:42:54;;;;;;;10.07;5.68;;;;;;;;;;5022731;28;20036;-65
2021/01/04 13:45:19;;;;;;;10.50;6.03;;;;;;;;;;5028653;28;20107;-65
2021/01/04 13:47:44;;;;;;;9.43;6.00;;;;;;;;;;5021233;28;20291;-65
2021/01/04 13:50:11;;;;;;;14.02;6.80;;;;;;;;;;5027589;28;20538;-65
2021/01/04 13:52:36;;;;;;;13.07;6.75;;;;;;;;;;5026567;28;20021;-65
2021/01/04 13:55:01;;;;;;;11.60;7.47;;;;;;;;;;5029850;28;20021;-65
2021/01/04 13:57:26;;;;;;;10.10;6.10;;;;;;;;;;5031583;28;20021;-64
2021/01/04 13:59:52;;;;;;;18.15;8.32;;;;;;;;;;5025707;28;20025;-65
2021/01/04 14:02:17;;;;;;;17.52;8.60;;;;;;;;;;5023029;28;20026;-65
2021/01/04 14:04:46;;;;;;;16.88;8.70;;;;;;;;;;5022564;28;20033;-64
2021/01/04 14:07:11;;;;;;;18.60;9.55;;;;;;;;;;5020104;28;20029;-64
2021/01/04 14:09:36;;;;;;;20.90;8.90;;;;;;;;;;5027491;28;20536;-64
2021/01/04 14:12:02;;;;;;;15.60;8.03;;;;;;;;;;5026744;28;20033;-64
2021/01/04 14:14:27;;;;;;;19.50;8.40;;;;;;;;;;5025732;28;20355;-65
2021/01/04 14:16:52;;;;;;;17.58;8.40;;;;;;;;;;5025123;28;20021;-63
2021/01/04 14:19:17;;;;;;;14.85;7.55;;;;;;;;;;5034367;28;20548;-64
2021/01/04 14:21:51;;;;;;;17.92;7.60;;;;;;;;;;5043780;28;20025;-63
2021/01/04 14:24:16;;;;;;;18.17;7.78;;;;;;;;;;5034106;28;20021;-64
2021/01/04 14:26:41;;;;;;;16.08;9.02;;;;;;;;;;5036335;28;20165;-66
2021/01/04 14:29:07;;;;;;;14.75;7.90;;;;;;;;;;5037921;28;20021;-64
2021/01/04 14:31:42;;;;;;;20.65;9.60;;;;;;;;;;5034735;28;20112;-65
2021/01/04 14:34:08;;;;;;;22.50;9.82;;;;;;;;;;5022288;28;20017;-64
2021/01/04 14:36:33;;;;;;;18.42;8.77;;;;;;;;;;5034725;28;20025;-64
2021/01/04 14:38:59;;;;;;;15.80;7.57;;;;;;;;;;5033408;28;20022;-65
2021/01/04 14:41:24;;;;;;;14.43;7.38;;;;;;;;;;5040300;28;20037;-63
2021/01/04 14:43:49;;;;;;;25.45;12.00;;;;;;;;;;5030474;28;20017;-63
2021/01/04 14:46:19;;;;;;;17.80;8.93;;;;;;;;;;5035884;28;20492;-64